Menu Close Menu
Station Historical Data
Daily Summary for August 13, 2017 Units:  English    Metric   Both
« Previous Day
Next Day »
Daily Weekly Monthly Yearly Custom
  High: Low: Average:
Temperature: 86.9 °F 72.3 °F 78.5 °F
Dew Point: 74.2 °F 70.1 °F 71.8 °F
Humidity: 93% 58% 81%
Wind Speed: 1.0mph 0.0mph 0mph
Wind Gust: 3.0mph - -
Wind- - SSW
Pressure: 29.99 in 29.91 in -
Precipitation: 0.00 in    
Historical Graphs
 
 
Tabular Data for August 13, 2017
Time Temperature Dew Point Pressure Wind Wind Speed Wind Gust Humidity Rainfall Rate (Hourly) solar Conditions
00:00 75.5 °F 72.0 °F 29.95 in Calm     89% 0.00 in WeatherDisplay:10.37 W/m2 BKN
00:05 75.5 °F 72.0 °F 29.95 in Calm     89% 0.00 in WeatherDisplay:10.37 W/m2 BKN
00:10 75.5 °F 72.0 °F 29.95 in Calm     89% 0.00 in WeatherDisplay:10.37 W/m2 BKN
00:15 75.4 °F 71.9 °F 29.95 in Calm     89% 0.00 in WeatherDisplay:10.37 W/m2 OVC
00:20 75.4 °F 71.9 °F 29.95 in Calm     89% 0.00 in WeatherDisplay:10.37 W/m2 OVC
00:25 75.3 °F 71.8 °F 29.94 in Calm     89% 0.00 in WeatherDisplay:10.37 W/m2 OVC
00:30 75.2 °F 71.7 °F 29.94 in Calm     89% 0.00 in WeatherDisplay:10.37 W/m2 OVC
00:35 75.1 °F 71.6 °F 29.94 in Calm     89% 0.00 in WeatherDisplay:10.37 W/m2 OVC
00:40 75.1 °F 71.6 °F 29.95 in Calm     89% 0.00 in WeatherDisplay:10.37 W/m2 OVC
00:45 75.0 °F 71.5 °F 29.95 in Calm     89% 0.00 in WeatherDisplay:10.37 W/m2 OVC
00:50 74.9 °F 71.4 °F 29.95 in Calm     89% 0.00 in WeatherDisplay:10.37 W/m2 OVC
00:55 74.8 °F 71.4 °F 29.94 in Calm     89% 0.00 in WeatherDisplay:10.37 W/m2 OVC
01:00 74.8 °F 71.7 °F 29.94 in Calm     90% 0.00 in WeatherDisplay:10.37 W/m2 OVC
01:10 74.6 °F 71.5 °F 29.94 in Calm     90% 0.00 in WeatherDisplay:10.37 W/m2 OVC
01:15 74.6 °F 71.5 °F 29.94 in Calm     90% 0.00 in WeatherDisplay:10.37 W/m2 BKN
01:20 74.5 °F 71.4 °F 29.94 in Calm     90% 0.00 in WeatherDisplay:10.37 W/m2 BKN
01:25 74.4 °F 71.3 °F 29.93 in Calm     90% 0.00 in WeatherDisplay:10.37 W/m2 BKN
01:30 74.4 °F 71.3 °F 29.93 in Calm     90% 0.00 in WeatherDisplay:10.37 W/m2 BKN
01:35 74.3 °F 71.2 °F 29.93 in Calm     90% 0.00 in WeatherDisplay:10.37 W/m2 BKN
01:40 74.3 °F 71.2 °F 29.93 in Calm     90% 0.00 in WeatherDisplay:10.37 W/m2 BKN
01:45 74.3 °F 71.2 °F 29.93 in Calm     90% 0.00 in WeatherDisplay:10.37 W/m2 BKN
01:50 74.4 °F 71.3 °F 29.93 in Calm     90% 0.00 in WeatherDisplay:10.37 W/m2 BKN
01:55 74.4 °F 71.3 °F 29.92 in Calm     90% 0.00 in WeatherDisplay:10.37 W/m2 BKN
02:00 74.4 °F 70.9 °F 29.92 in Calm     89% 0.00 in WeatherDisplay:10.37 W/m2 BKN
02:10 74.4 °F 70.9 °F 29.92 in Calm     89% 0.00 in WeatherDisplay:10.37 W/m2 BKN
02:15 74.4 °F 70.9 °F 29.92 in Calm     89% 0.00 in WeatherDisplay:10.37 W/m2 BKN
02:20 74.3 °F 70.9 °F 29.92 in Calm     89% 0.00 in WeatherDisplay:10.37 W/m2 BKN
02:30 74.3 °F 71.2 °F 29.92 in Calm     90% 0.00 in WeatherDisplay:10.37 W/m2 BKN
02:35 74.3 °F 71.2 °F 29.92 in Calm     90% 0.00 in WeatherDisplay:10.37 W/m2 BKN
02:40 74.2 °F 71.1 °F 29.92 in Calm     90% 0.00 in WeatherDisplay:10.37 W/m2 BKN
02:45 74.2 °F 71.1 °F 29.92 in Calm     90% 0.00 in WeatherDisplay:10.37 W/m2 BKN
02:50 74.2 °F 71.1 °F 29.92 in Calm     90% 0.00 in WeatherDisplay:10.37 W/m2 BKN
02:55 74.1 °F 71.0 °F 29.92 in Calm     90% 0.00 in WeatherDisplay:10.37 W/m2 BKN
03:00 74.0 °F 70.9 °F 29.92 in Calm     90% 0.00 in WeatherDisplay:10.37 W/m2 BKN
03:05 74.0 °F 70.9 °F 29.92 in Calm     90% 0.00 in WeatherDisplay:10.37 W/m2 BKN
03:10 73.9 °F 70.8 °F 29.92 in Calm     90% 0.00 in WeatherDisplay:10.37 W/m2 BKN
03:15 73.8 °F 70.7 °F 29.92 in Calm     90% 0.00 in WeatherDisplay:10.37 W/m2 SCT
03:20 73.7 °F 70.6 °F 29.92 in Calm     90% 0.00 in WeatherDisplay:10.37 W/m2 SCT
03:25 73.6 °F 70.8 °F 29.92 in Calm     91% 0.00 in WeatherDisplay:10.37 W/m2 SCT
03:30 73.5 °F 70.7 °F 29.92 in Calm     91% 0.00 in WeatherDisplay:10.37 W/m2 SCT
03:40 73.4 °F 70.6 °F 29.92 in Calm     91% 0.00 in WeatherDisplay:10.37 W/m2 SCT
03:45 73.3 °F 70.5 °F 29.92 in Calm     91% 0.00 in WeatherDisplay:10.37 W/m2 SCT
03:50 73.3 °F 70.5 °F 29.92 in Calm     91% 0.00 in WeatherDisplay:10.37 W/m2 SCT
03:55 73.3 °F 70.5 °F 29.92 in Calm     91% 0.00 in WeatherDisplay:10.37 W/m2 SCT
04:00 73.3 °F 70.8 °F 29.92 in Calm     92% 0.00 in WeatherDisplay:10.37 W/m2 SCT
04:10 73.2 °F 70.7 °F 29.92 in Calm     92% 0.00 in WeatherDisplay:10.37 W/m2 SCT
04:15 73.2 °F 70.7 °F 29.92 in Calm     92% 0.00 in WeatherDisplay:10.37 W/m2 FEW
04:20 73.1 °F 70.6 °F 29.92 in Calm     92% 0.00 in WeatherDisplay:10.37 W/m2 FEW
04:25 73.1 °F 70.6 °F 29.92 in Calm     92% 0.00 in WeatherDisplay:10.37 W/m2 FEW
04:30 73.0 °F 70.5 °F 29.92 in Calm     92% 0.00 in WeatherDisplay:10.37 W/m2 FEW
04:40 72.9 °F 70.4 °F 29.92 in Calm     92% 0.00 in WeatherDisplay:10.37 W/m2 FEW
04:45 72.9 °F 70.4 °F 29.91 in Calm     92% 0.00 in WeatherDisplay:10.37 W/m2 FEW
04:50 72.8 °F 70.3 °F 29.91 in Calm     92% 0.00 in WeatherDisplay:10.37 W/m2 FEW
04:55 72.8 °F 70.3 °F 29.91 in Calm     92% 0.00 in WeatherDisplay:10.37 W/m2 FEW
05:00 72.7 °F 70.2 °F 29.91 in Calm     92% 0.00 in WeatherDisplay:10.37 W/m2 FEW
05:10 72.7 °F 70.2 °F 29.91 in Calm     92% 0.00 in WeatherDisplay:10.37 W/m2 FEW
05:15 72.6 °F 70.1 °F 29.91 in Calm     92% 0.00 in WeatherDisplay:10.37 W/m2 CLR
05:20 72.7 °F 70.6 °F 29.91 in Calm   1.0 mph 93% 0.00 in WeatherDisplay:10.37 W/m2 CLR
05:30 72.8 °F 70.7 °F 29.92 in Calm     93% 0.00 in WeatherDisplay:10.37 W/m2 CLR
05:35 72.8 °F 70.7 °F 29.92 in Calm     93% 0.00 in WeatherDisplay:10.37 W/m2 CLR
05:40 72.9 °F 70.8 °F 29.92 in Calm     93% 0.00 in WeatherDisplay:10.37 W/m2 CLR
05:45 72.8 °F 70.7 °F 29.92 in Calm     93% 0.00 in WeatherDisplay:10.37 W/m2 CLR
05:50 72.8 °F 70.7 °F 29.92 in Calm     93% 0.00 in WeatherDisplay:10.37 W/m2 CLR
05:55 72.8 °F 70.7 °F 29.92 in Calm     93% 0.00 in WeatherDisplay:10.37 W/m2 CLR
06:00 72.7 °F 70.6 °F 29.93 in Calm     93% 0.00 in WeatherDisplay:10.37 W/m2 CLR
06:10 72.7 °F 70.6 °F 29.93 in Calm     93% 0.00 in WeatherDisplay:10.37 W/m2 CLR
06:15 72.7 °F 70.6 °F 29.92 in Calm     93% 0.00 in WeatherDisplay:10.37 W/m2 BKN
06:20 72.7 °F 70.6 °F 29.92 in Calm     93% 0.00 in WeatherDisplay:10.37 W/m2 BKN
06:25 72.6 °F 70.5 °F 29.92 in Calm     93% 0.00 in WeatherDisplay:10.37 W/m2 BKN
06:30 72.6 °F 70.5 °F 29.93 in Calm     93% 0.00 in WeatherDisplay:10.37 W/m2 BKN
06:40 72.6 °F 70.5 °F 29.94 in Calm     93% 0.00 in WeatherDisplay:10.37 W/m2 BKN
06:45 72.6 °F 70.5 °F 29.94 in Calm     93% 0.00 in WeatherDisplay:10.37 W/m2 BKN
06:50 72.5 °F 70.4 °F 29.94 in Calm     93% 0.00 in WeatherDisplay:10.37 W/m2 BKN
06:55 72.5 °F 70.4 °F 29.95 in Calm     93% 0.00 in WeatherDisplay:10.37 W/m2 BKN
07:00 72.4 °F 70.3 °F 29.95 in Calm     93% 0.00 in WeatherDisplay:10.37 W/m2 BKN
07:10 72.4 °F 70.2 °F 29.95 in Calm     93% 0.00 in WeatherDisplay:10.37 W/m2 BKN
07:15 72.3 °F 70.2 °F 29.95 in Calm     93% 0.00 in WeatherDisplay:10.37 W/m2 BKN
07:20 72.3 °F 70.2 °F 29.95 in Calm     93% 0.00 in WeatherDisplay:10.37 W/m2 BKN
07:25 72.3 °F 70.2 °F 29.95 in Calm     93% 0.00 in WeatherDisplay:10.37 W/m2 BKN
07:30 72.3 °F 70.2 °F 29.95 in Calm     93% 0.00 in WeatherDisplay:10.37 W/m2 BKN
07:35 72.3 °F 70.2 °F 29.95 in Calm     93% 0.00 in WeatherDisplay:10.37 W/m2 BKN
07:40 72.4 °F 70.3 °F 29.95 in Calm     93% 0.00 in WeatherDisplay:10.37 W/m2 BKN
07:45 72.5 °F 70.3 °F 29.95 in Calm     93% 0.00 in WeatherDisplay:10.37 W/m2 BKN
07:50 72.5 °F 70.4 °F 29.95 in Calm     93% 0.00 in WeatherDisplay:10.37 W/m2 BKN
08:00 72.6 °F 70.5 °F 29.95 in Calm     93% 0.00 in WeatherDisplay:10.37 W/m2 BKN
08:05 72.6 °F 70.5 °F 29.95 in Calm     93% 0.00 in WeatherDisplay:10.37 W/m2 BKN
08:10 72.7 °F 70.6 °F 29.96 in Calm     93% 0.00 in WeatherDisplay:10.37 W/m2 BKN
08:15 72.8 °F 70.7 °F 29.96 in Calm     93% 0.00 in WeatherDisplay:10.37 W/m2 BKN
08:20 72.9 °F 70.8 °F 29.96 in Calm     93% 0.00 in WeatherDisplay:10.37 W/m2 BKN
08:25 73.0 °F 70.8 °F 29.96 in Calm     93% 0.00 in WeatherDisplay:10.37 W/m2 BKN
08:30 73.1 °F 71.0 °F 29.96 in Calm     93% 0.00 in WeatherDisplay:10.37 W/m2 BKN
08:35 73.2 °F 71.1 °F 29.96 in Calm     93% 0.00 in WeatherDisplay:10.37 W/m2 BKN
08:40 73.3 °F 71.1 °F 29.96 in Calm     93% 0.00 in WeatherDisplay:10.37 W/m2 BKN
08:45 73.5 °F 71.4 °F 29.96 in Calm     93% 0.00 in WeatherDisplay:10.37 W/m2 BKN
08:50 73.5 °F 71.4 °F 29.97 in Calm     93% 0.00 in WeatherDisplay:10.37 W/m2 BKN
08:55 73.6 °F 71.2 °F 29.97 in Calm     92% 0.00 in WeatherDisplay:10.37 W/m2 BKN
09:00 73.8 °F 71.3 °F 29.97 in Calm     92% 0.00 in WeatherDisplay:10.37 W/m2 BKN
09:10 74.4 °F 71.6 °F 29.97 in Calm     91% 0.00 in WeatherDisplay:10.37 W/m2 BKN
09:15 74.7 °F 71.9 °F 29.98 in Calm     91% 0.00 in WeatherDisplay:10.37 W/m2 BKN
09:20 74.9 °F 71.7 °F 29.98 in Calm   1.0 mph 90% 0.00 in WeatherDisplay:10.37 W/m2 BKN
09:25 75.3 °F 72.2 °F 29.98 in Calm   1.0 mph 90% 0.00 in WeatherDisplay:10.37 W/m2 BKN
09:30 75.8 °F 72.0 °F 29.97 in SW 1.0 mph 1.0 mph 88% 0.00 in WeatherDisplay:10.37 W/m2 BKN
09:35 76.1 °F 71.9 °F 29.97 in Calm   2.0 mph 87% 0.00 in WeatherDisplay:10.37 W/m2 BKN
09:40 76.4 °F 71.9 °F 29.97 in Calm   1.0 mph 86% 0.00 in WeatherDisplay:10.37 W/m2 BKN
09:45 76.8 °F 72.6 °F 29.97 in Calm     87% 0.00 in WeatherDisplay:10.37 W/m2 BKN
09:50 77.1 °F 72.3 °F 29.97 in Calm   1.0 mph 85% 0.00 in WeatherDisplay:10.37 W/m2 BKN
09:55 77.6 °F 73.1 °F 29.97 in Calm     86% 0.00 in WeatherDisplay:10.37 W/m2 BKN
10:00 78.0 °F 73.2 °F 29.97 in Calm   1.0 mph 85% 0.00 in WeatherDisplay:10.37 W/m2 BKN
10:05 78.6 °F 73.4 °F 29.97 in Calm   1.0 mph 84% 0.00 in WeatherDisplay:10.37 W/m2 BKN
10:10 79.0 °F 73.4 °F 29.97 in Calm     83% 0.00 in WeatherDisplay:10.37 W/m2 BKN
10:15 79.5 °F 73.5 °F 29.98 in Calm   1.0 mph 82% 0.00 in WeatherDisplay:10.37 W/m2 BKN
10:20 79.8 °F 73.4 °F 29.98 in Calm     81% 0.00 in WeatherDisplay:10.37 W/m2 BKN
10:25 79.8 °F 73.4 °F 29.98 in Calm   1.0 mph 81% 0.00 in WeatherDisplay:10.37 W/m2 BKN
10:30 79.8 °F 72.7 °F 29.98 in Calm   1.0 mph 79% 0.00 in WeatherDisplay:10.37 W/m2 BKN
10:40 80.5 °F 73.7 °F 29.98 in Calm   1.0 mph 80% 0.00 in WeatherDisplay:10.37 W/m2 BKN
10:45 80.7 °F 72.8 °F 29.98 in Calm   2.0 mph 77% 0.00 in WeatherDisplay:10.37 W/m2 BKN
10:50 80.9 °F 73.0 °F 29.98 in Calm     77% 0.00 in WeatherDisplay:10.37 W/m2 BKN
10:55 81.0 °F 73.1 °F 29.98 in Calm   1.0 mph 77% 0.00 in WeatherDisplay:10.37 W/m2 BKN
11:00 80.7 °F 72.4 °F 29.98 in Calm   1.0 mph 76% 0.00 in WeatherDisplay:10.37 W/m2 BKN
11:05 80.6 °F 72.7 °F 29.98 in Calm   1.0 mph 77% 0.00 in WeatherDisplay:10.37 W/m2 BKN
11:10 80.8 °F 72.9 °F 29.98 in SW 1.0 mph 2.0 mph 77% 0.00 in WeatherDisplay:10.37 W/m2 BKN
11:15 81.0 °F 73.1 °F 29.98 in Calm   1.0 mph 77% 0.00 in WeatherDisplay:10.37 W/m2 BKN
11:20 81.2 °F 73.3 °F 29.98 in Calm   1.0 mph 77% 0.00 in WeatherDisplay:10.37 W/m2 BKN
11:25 81.3 °F 72.6 °F 29.98 in Calm   2.0 mph 75% 0.00 in WeatherDisplay:10.37 W/m2 BKN
11:30 81.5 °F 72.8 °F 29.98 in Calm   1.0 mph 75% 0.00 in WeatherDisplay:10.37 W/m2 BKN
11:35 81.9 °F 73.2 °F 29.98 in Calm     75% 0.00 in WeatherDisplay:10.37 W/m2 BKN
11:40 82.3 °F 74.0 °F 29.99 in Calm   1.0 mph 76% 0.00 in WeatherDisplay:10.37 W/m2 BKN
11:45 82.7 °F 73.2 °F 29.99 in Calm   1.0 mph 73% 0.00 in WeatherDisplay:10.37 W/m2 BKN
11:50 83.2 °F 74.0 °F 29.99 in Calm     74% 0.00 in WeatherDisplay:10.37 W/m2 BKN
11:55 83.2 °F 73.6 °F 29.99 in Calm   1.0 mph 73% 0.00 in WeatherDisplay:10.37 W/m2 BKN
12:00 83.4 °F 73.0 °F 29.98 in Calm   1.0 mph 71% 0.00 in WeatherDisplay:10.37 W/m2 BKN
12:10 83.5 °F 72.3 °F 29.98 in Calm   1.0 mph 69% 0.00 in WeatherDisplay:10.37 W/m2 BKN
12:15 83.6 °F 73.2 °F 29.98 in Calm   1.0 mph 71% 0.00 in WeatherDisplay:10.37 W/m2 BKN
12:20 83.5 °F 72.7 °F 29.98 in Calm   1.0 mph 70% 0.00 in WeatherDisplay:10.37 W/m2 BKN
12:25 83.5 °F 73.5 °F 29.98 in Calm   1.0 mph 72% 0.00 in WeatherDisplay:10.37 W/m2 BKN
12:30 83.5 °F 72.7 °F 29.98 in Calm     70% 0.00 in WeatherDisplay:10.37 W/m2 BKN
12:35 83.6 °F 72.8 °F 29.98 in Calm     70% 0.00 in WeatherDisplay:10.37 W/m2 BKN
12:40 83.8 °F 72.5 °F 29.98 in Calm     69% 0.00 in WeatherDisplay:10.37 W/m2 BKN
12:45 83.8 °F 72.9 °F 29.98 in Calm   1.0 mph 70% 0.00 in WeatherDisplay:10.37 W/m2 BKN
12:50 83.7 °F 73.3 °F 29.98 in Calm     71% 0.00 in WeatherDisplay:10.37 W/m2 BKN
12:55 84.1 °F 73.7 °F 29.97 in Calm   2.0 mph 71% 0.00 in WeatherDisplay:10.37 W/m2 BKN
13:00 83.9 °F 72.2 °F 29.97 in Calm   2.0 mph 68% 0.00 in WeatherDisplay:10.37 W/m2 BKN
13:10 83.8 °F 73.8 °F 29.97 in Calm     72% 0.00 in WeatherDisplay:10.37 W/m2 BKN
13:15 83.5 °F 73.6 °F 29.97 in Calm   1.0 mph 72% 0.00 in WeatherDisplay:10.37 W/m2 BKN
13:20 83.5 °F 72.7 °F 29.97 in Calm   2.0 mph 70% 0.00 in WeatherDisplay:10.37 W/m2 BKN
13:25 83.7 °F 73.7 °F 29.97 in Calm   3.0 mph 72% 0.00 in WeatherDisplay:10.37 W/m2 BKN
13:30 84.3 °F 73.4 °F 29.97 in Calm     70% 0.00 in WeatherDisplay:10.37 W/m2 BKN
13:35 84.7 °F 73.4 °F 29.97 in Calm     69% 0.00 in WeatherDisplay:10.37 W/m2 BKN
13:40 84.9 °F 73.6 °F 29.96 in Calm     69% 0.00 in WeatherDisplay:10.37 W/m2 BKN
13:45 85.1 °F 74.2 °F 29.96 in Calm     70% 0.00 in WeatherDisplay:10.37 W/m2 BKN
13:50 85.2 °F 73.4 °F 29.96 in Calm     68% 0.00 in WeatherDisplay:10.37 W/m2 BKN
13:55 85.3 °F 72.7 °F 29.96 in SW 1.0 mph 2.0 mph 66% 0.00 in WeatherDisplay:10.37 W/m2 BKN
14:00 85.6 °F 72.0 °F 29.96 in Calm     64% 0.00 in WeatherDisplay:10.37 W/m2 BKN
14:10 85.5 °F 72.4 °F 29.96 in Calm     65% 0.00 in WeatherDisplay:10.37 W/m2 BKN
14:15 86.0 °F 74.2 °F 29.96 in Calm     68% 0.00 in WeatherDisplay:10.37 W/m2 BKN
14:20 86.4 °F 71.8 °F 29.96 in Calm     62% 0.00 in WeatherDisplay:10.37 W/m2 BKN
14:25 86.2 °F 71.6 °F 29.95 in Calm   1.0 mph 62% 0.00 in WeatherDisplay:10.37 W/m2 BKN
14:30 86.1 °F 72.0 °F 29.95 in Calm     63% 0.00 in WeatherDisplay:10.37 W/m2 BKN
14:35 86.0 °F 72.9 °F 29.95 in Calm   1.0 mph 65% 0.00 in WeatherDisplay:10.37 W/m2 BKN
14:40 85.7 °F 72.1 °F 29.95 in Calm   2.0 mph 64% 0.00 in WeatherDisplay:10.37 W/m2 BKN
14:45 85.9 °F 73.2 °F 29.95 in Calm     66% 0.00 in WeatherDisplay:10.37 W/m2 BKN
14:50 85.9 °F 71.8 °F 29.95 in Calm   1.0 mph 63% 0.00 in WeatherDisplay:10.37 W/m2 BKN
14:55 86.0 °F 72.9 °F 29.94 in Calm   1.0 mph 65% 0.00 in WeatherDisplay:10.37 W/m2 BKN
15:00 86.1 °F 71.5 °F 29.94 in Calm   2.0 mph 62% 0.00 in WeatherDisplay:10.37 W/m2 BKN
15:05 86.2 °F 72.1 °F 29.94 in Calm   1.0 mph 63% 0.00 in WeatherDisplay:10.37 W/m2 BKN
15:10 86.3 °F 71.3 °F 29.94 in Calm   2.0 mph 61% 0.00 in WeatherDisplay:10.37 W/m2 BKN
15:15 86.6 °F 71.0 °F 29.94 in Calm   1.0 mph 60% 0.00 in WeatherDisplay:10.37 W/m2 BKN
15:20 86.8 °F 71.2 °F 29.93 in Calm   1.0 mph 60% 0.00 in WeatherDisplay:10.37 W/m2 BKN
15:25 86.9 °F 71.3 °F 29.93 in Calm   2.0 mph 60% 0.00 in WeatherDisplay:10.37 W/m2 BKN
15:30 86.9 °F 70.3 °F 29.93 in Calm   1.0 mph 58% 0.00 in WeatherDisplay:10.37 W/m2 BKN
15:35 86.8 °F 72.7 °F 29.93 in Calm   1.0 mph 63% 0.00 in WeatherDisplay:10.37 W/m2 BKN
15:40 86.8 °F 72.7 °F 29.93 in Calm     63% 0.00 in WeatherDisplay:10.37 W/m2 BKN
15:45 86.9 °F 72.3 °F 29.92 in Calm   1.0 mph 62% 0.00 in WeatherDisplay:10.37 W/m2 BKN
15:50 86.7 °F 71.7 °F 29.92 in East 1.0 mph 2.0 mph 61% 0.00 in WeatherDisplay:10.37 W/m2 BKN
15:55 86.5 °F 71.5 °F 29.92 in Calm   2.0 mph 61% 0.00 in WeatherDisplay:10.37 W/m2 BKN
16:00 86.5 °F 71.9 °F 29.92 in Calm   1.0 mph 62% 0.00 in WeatherDisplay:10.37 W/m2 BKN
16:05 86.6 °F 71.1 °F 29.92 in Calm   1.0 mph 60% 0.00 in WeatherDisplay:10.37 W/m2 BKN
16:10 86.7 °F 72.1 °F 29.92 in Calm     62% 0.00 in WeatherDisplay:10.37 W/m2 BKN
16:15 86.4 °F 70.9 °F 29.92 in Calm   1.0 mph 60% 0.00 in WeatherDisplay:10.37 W/m2 BKN
16:20 86.1 °F 72.0 °F 29.93 in Calm     63% 0.00 in WeatherDisplay:10.37 W/m2 BKN
16:25 85.8 °F 71.8 °F 29.93 in Calm   1.0 mph 63% 0.00 in WeatherDisplay:10.37 W/m2 BKN
16:30 85.6 °F 72.0 °F 29.93 in Calm   1.0 mph 64% 0.00 in WeatherDisplay:10.37 W/m2 BKN
16:35 85.6 °F 71.1 °F 29.93 in Calm   1.0 mph 62% 0.00 in WeatherDisplay:10.37 W/m2 BKN
16:40 85.6 °F 70.6 °F 29.93 in Calm   1.0 mph 61% 0.00 in WeatherDisplay:10.37 W/m2 BKN
16:45 85.7 °F 72.6 °F 29.93 in Calm   1.0 mph 65% 0.00 in WeatherDisplay:10.37 W/m2 BKN
16:50 85.3 °F 73.5 °F 29.92 in Calm   1.0 mph 68% 0.00 in WeatherDisplay:10.37 W/m2 BKN
16:55 84.7 °F 73.4 °F 29.92 in Calm   1.0 mph 69% 0.00 in WeatherDisplay:10.37 W/m2 BKN
17:00 84.6 °F 72.0 °F 29.92 in Calm   1.0 mph 66% 0.00 in WeatherDisplay:10.37 W/m2 BKN
17:10 85.6 °F 71.6 °F 29.92 in Calm   1.0 mph 63% 0.00 in WeatherDisplay:10.37 W/m2 BKN
17:15 86.0 °F 72.0 °F 29.92 in Calm   2.0 mph 63% 0.00 in WeatherDisplay:10.37 W/m2 BKN
17:20 86.3 °F 71.7 °F 29.92 in Calm   1.0 mph 62% 0.00 in WeatherDisplay:10.37 W/m2 BKN
17:25 86.3 °F 72.7 °F 29.92 in Calm   1.0 mph 64% 0.00 in WeatherDisplay:10.37 W/m2 BKN
17:30 85.8 °F 73.6 °F 29.92 in Calm   1.0 mph 67% 0.00 in WeatherDisplay:10.37 W/m2 BKN
17:40 84.4 °F 72.7 °F 29.92 in Calm   1.0 mph 68% 0.00 in WeatherDisplay:10.37 W/m2 BKN
17:45 84.0 °F 72.7 °F 29.92 in Calm     69% 0.00 in WeatherDisplay:10.37 W/m2 BKN
17:50 83.8 °F 73.4 °F 29.92 in Calm   2.0 mph 71% 0.00 in WeatherDisplay:10.37 W/m2 BKN
17:55 83.6 °F 72.3 °F 29.92 in Calm   1.0 mph 69% 0.00 in WeatherDisplay:10.37 W/m2 BKN
18:00 83.7 °F 72.9 °F 29.92 in Calm   1.0 mph 70% 0.00 in WeatherDisplay:10.37 W/m2 BKN
18:05 83.4 °F 72.6 °F 29.91 in Calm   1.0 mph 70% 0.00 in WeatherDisplay:10.37 W/m2 BKN
18:10 83.0 °F 73.0 °F 29.91 in Calm     72% 0.00 in WeatherDisplay:10.37 W/m2 BKN
18:15 82.6 °F 73.0 °F 29.91 in Calm   1.0 mph 73% 0.00 in WeatherDisplay:10.37 W/m2 BKN
18:20 82.1 °F 73.0 °F 29.91 in Calm   1.0 mph 74% 0.00 in WeatherDisplay:10.37 W/m2 BKN
18:25 81.8 °F 72.7 °F 29.91 in Calm   1.0 mph 74% 0.00 in WeatherDisplay:10.37 W/m2 BKN
18:30 81.6 °F 72.9 °F 29.91 in Calm   1.0 mph 75% 0.00 in WeatherDisplay:10.37 W/m2 BKN
18:35 81.4 °F 72.7 °F 29.91 in Calm   1.0 mph 75% 0.00 in WeatherDisplay:10.37 W/m2 BKN
18:40 81.2 °F 72.5 °F 29.91 in Calm     75% 0.00 in WeatherDisplay:10.37 W/m2 BKN
18:45 81.1 °F 72.8 °F 29.91 in Calm   1.0 mph 76% 0.00 in WeatherDisplay:10.37 W/m2 BKN
18:50 81.1 °F 72.8 °F 29.91 in Calm   1.0 mph 76% 0.00 in WeatherDisplay:10.37 W/m2 BKN
18:55 81.1 °F 72.8 °F 29.92 in Calm     76% 0.00 in WeatherDisplay:10.37 W/m2 BKN
19:00 81.2 °F 72.9 °F 29.91 in Calm     76% 0.00 in WeatherDisplay:10.37 W/m2 BKN
19:05 81.2 °F 72.9 °F 29.92 in Calm     76% 0.00 in WeatherDisplay:10.37 W/m2 BKN
19:10 81.1 °F 72.5 °F 29.92 in Calm     75% 0.00 in WeatherDisplay:10.37 W/m2 BKN
19:15 81.1 °F 72.8 °F 29.92 in Calm   1.0 mph 76% 0.00 in WeatherDisplay:10.37 W/m2 SCT
19:20 81.1 °F 72.4 °F 29.92 in Calm   1.0 mph 75% 0.00 in WeatherDisplay:10.37 W/m2 SCT
19:25 80.9 °F 72.2 °F 29.92 in Calm     75% 0.00 in WeatherDisplay:10.37 W/m2 SCT
19:30 80.8 °F 72.5 °F 29.92 in Calm   1.0 mph 76% 0.00 in WeatherDisplay:10.37 W/m2 SCT
19:40 80.6 °F 72.3 °F 29.92 in Calm     76% 0.00 in WeatherDisplay:10.37 W/m2 SCT
19:45 80.4 °F 72.5 °F 29.92 in Calm   1.0 mph 77% 0.00 in WeatherDisplay:10.37 W/m2 SCT
19:50 80.3 °F 72.4 °F 29.92 in Calm   1.0 mph 77% 0.00 in WeatherDisplay:10.37 W/m2 SCT
19:55 80.2 °F 72.3 °F 29.92 in Calm   1.0 mph 77% 0.00 in WeatherDisplay:10.37 W/m2 SCT
20:00 80.1 °F 72.6 °F 29.92 in Calm   1.0 mph 78% 0.00 in WeatherDisplay:10.37 W/m2 SCT
20:10 79.8 °F 72.3 °F 29.93 in Calm   1.0 mph 78% 0.00 in WeatherDisplay:10.37 W/m2 SCT
20:15 79.7 °F 72.2 °F 29.93 in Calm     78% 0.00 in WeatherDisplay:10.37 W/m2 BKN
20:20 79.5 °F 72.4 °F 29.93 in Calm   1.0 mph 79% 0.00 in WeatherDisplay:10.37 W/m2 BKN
20:25 79.4 °F 72.3 °F 29.93 in Calm     79% 0.00 in WeatherDisplay:10.37 W/m2 BKN
20:30 79.3 °F 72.2 °F 29.93 in Calm   1.0 mph 79% 0.00 in WeatherDisplay:10.37 W/m2 BKN
20:40 79.0 °F 71.9 °F 29.93 in Calm     79% 0.00 in WeatherDisplay:10.37 W/m2 BKN
20:45 78.9 °F 71.8 °F 29.93 in Calm     79% 0.00 in WeatherDisplay:10.37 W/m2 BKN
20:50 78.7 °F 72.0 °F 29.93 in Calm     80% 0.00 in WeatherDisplay:10.37 W/m2 BKN
20:55 78.6 °F 71.9 °F 29.93 in Calm     80% 0.00 in WeatherDisplay:10.37 W/m2 BKN
21:00 78.4 °F 72.1 °F 29.94 in Calm     81% 0.00 in WeatherDisplay:10.37 W/m2 BKN
21:05 78.3 °F 72.0 °F 29.94 in Calm     81% 0.00 in WeatherDisplay:10.37 W/m2 BKN
21:10 78.1 °F 71.8 °F 29.94 in Calm     81% 0.00 in WeatherDisplay:10.37 W/m2 BKN
21:15 78.0 °F 71.7 °F 29.94 in Calm     81% 0.00 in WeatherDisplay:10.37 W/m2 SCT
21:20 77.9 °F 71.9 °F 29.94 in Calm     82% 0.00 in WeatherDisplay:10.37 W/m2 SCT
21:25 77.7 °F 71.8 °F 29.95 in Calm     82% 0.00 in WeatherDisplay:10.37 W/m2 SCT
21:30 77.6 °F 71.6 °F 29.95 in Calm     82% 0.00 in WeatherDisplay:10.37 W/m2 SCT
21:40 77.3 °F 71.7 °F 29.95 in Calm     83% 0.00 in WeatherDisplay:10.37 W/m2 SCT
21:45 77.2 °F 71.6 °F 29.95 in Calm     83% 0.00 in WeatherDisplay:10.37 W/m2 SCT
21:50 77.1 °F 71.5 °F 29.95 in Calm     83% 0.00 in WeatherDisplay:10.37 W/m2 SCT
21:55 77.0 °F 71.4 °F 29.96 in Calm     83% 0.00 in WeatherDisplay:10.37 W/m2 SCT
22:00 76.9 °F 71.7 °F 29.95 in Calm     84% 0.00 in WeatherDisplay:10.37 W/m2 SCT
22:05 76.8 °F 71.9 °F 29.96 in Calm     85% 0.00 in WeatherDisplay:10.37 W/m2 SCT
22:15 76.5 °F 71.7 °F 29.96 in Calm     85% 0.00 in WeatherDisplay:10.37 W/m2 SCT
22:20 76.4 °F 71.6 °F 29.96 in Calm     85% 0.00 in WeatherDisplay:10.37 W/m2 SCT
22:25 76.3 °F 71.8 °F 29.96 in Calm     86% 0.00 in WeatherDisplay:10.37 W/m2 SCT
22:30 76.1 °F 71.6 °F 29.97 in Calm     86% 0.00 in WeatherDisplay:10.37 W/m2 SCT
22:35 75.9 °F 71.8 °F 29.97 in Calm     87% 0.00 in WeatherDisplay:10.37 W/m2 SCT
22:40 75.8 °F 71.7 °F 29.97 in Calm     87% 0.00 in WeatherDisplay:10.37 W/m2 SCT
22:45 75.7 °F 71.6 °F 29.97 in Calm     87% 0.00 in WeatherDisplay:10.37 W/m2 SCT
22:55 75.4 °F 71.3 °F 29.97 in Calm     87% 0.00 in WeatherDisplay:10.37 W/m2 SCT
23:00 75.3 °F 71.2 °F 29.97 in Calm     87% 0.00 in WeatherDisplay:10.37 W/m2 SCT
23:05 75.2 °F 71.1 °F 29.97 in Calm     87% 0.00 in WeatherDisplay:10.37 W/m2 SCT
23:10 75.1 °F 71.0 °F 29.97 in Calm     87% 0.00 in WeatherDisplay:10.37 W/m2 SCT
23:15 75.1 °F 71.3 °F 29.97 in Calm     88% 0.00 in WeatherDisplay:10.37 W/m2 SCT
23:20 75.0 °F 71.2 °F 29.97 in Calm     88% 0.00 in WeatherDisplay:10.37 W/m2 SCT
23:25 74.9 °F 70.8 °F 29.97 in Calm     87% 0.00 in WeatherDisplay:10.37 W/m2 SCT
23:30 74.9 °F 70.8 °F 29.97 in Calm     87% 0.00 in WeatherDisplay:10.37 W/m2 SCT
23:35 74.9 °F 71.1 °F 29.97 in Calm     88% 0.00 in WeatherDisplay:10.37 W/m2 SCT
23:40 74.8 °F 71.0 °F 29.96 in Calm     88% 0.00 in WeatherDisplay:10.37 W/m2 SCT
23:45 74.8 °F 71.0 °F 29.96 in Calm     88% 0.00 in WeatherDisplay:10.37 W/m2 SCT
23:50 74.8 °F 71.0 °F 29.96 in Calm     88% 0.00 in WeatherDisplay:10.37 W/m2 SCT
23:55 74.8 °F 70.6 °F 29.96 in Calm     87% 0.00 in WeatherDisplay:10.37 W/m2 SCT
Piedmont Bend
Compliments of Weather Underground - 4 mb